sensor_id;sensor_type;location;lat;lon;timestamp;P1;durP1;ratioP1;P2;durP2;ratioP2
71503;SDS011;59323;50.874;7.028;2023-04-06T14:43:41;11.18;;;4.80;;
71503;SDS011;59323;50.874;7.028;2023-04-06T14:46:06;10.88;;;4.78;;
71503;SDS011;59323;50.874;7.028;2023-04-06T14:48:33;11.77;;;4.93;;
71503;SDS011;59323;50.874;7.028;2023-04-06T14:50:59;12.07;;;4.43;;
71503;SDS011;59323;50.874;7.028;2023-04-06T14:53:24;8.73;;;3.40;;
71503;SDS011;59323;50.874;7.028;2023-04-06T14:55:51;8.70;;;3.17;;
71503;SDS011;59323;50.874;7.028;2023-04-06T14:58:17;8.82;;;3.13;;
71503;SDS011;59323;50.874;7.028;2023-04-06T15:00:43;8.93;;;3.17;;
71503;SDS011;59323;50.874;7.028;2023-04-06T15:03:08;8.83;;;3.37;;
71503;SDS011;59323;50.874;7.028;2023-04-06T15:05:34;8.53;;;4.10;;
71503;SDS011;59323;50.874;7.028;2023-04-06T15:08:00;11.23;;;4.63;;
71503;SDS011;59323;50.874;7.028;2023-04-06T15:10:25;10.30;;;4.30;;
71503;SDS011;59323;50.874;7.028;2023-04-06T15:12:51;10.63;;;4.55;;
71503;SDS011;59323;50.874;7.028;2023-04-06T15:15:16;9.77;;;4.00;;
71503;SDS011;59323;50.874;7.028;2023-04-06T15:17:42;9.73;;;3.83;;
71503;SDS011;59323;50.874;7.028;2023-04-06T15:20:07;9.57;;;3.33;;
71503;SDS011;59323;50.874;7.028;2023-04-06T15:22:33;8.17;;;3.13;;
71503;SDS011;59323;50.874;7.028;2023-04-06T15:24:58;10.90;;;3.70;;
71503;SDS011;59323;50.874;7.028;2023-04-06T15:27:23;9.68;;;3.45;;
71503;SDS011;59323;50.874;7.028;2023-04-06T15:29:49;7.77;;;3.40;;
71503;SDS011;59323;50.874;7.028;2023-04-06T15:32:15;7.45;;;3.17;;
71503;SDS011;59323;50.874;7.028;2023-04-06T15:34:40;9.63;;;3.80;;
71503;SDS011;59323;50.874;7.028;2023-04-06T15:37:06;9.47;;;3.63;;
71503;SDS011;59323;50.874;7.028;2023-04-06T15:39:32;10.10;;;3.85;;
71503;SDS011;59323;50.874;7.028;2023-04-06T15:41:58;10.18;;;4.20;;
71503;SDS011;59323;50.874;7.028;2023-04-06T15:44:23;10.33;;;4.47;;
71503;SDS011;59323;50.874;7.028;2023-04-06T15:46:49;11.82;;;4.40;;
71503;SDS011;59323;50.874;7.028;2023-04-06T15:49:17;9.75;;;4.40;;
71503;SDS011;59323;50.874;7.028;2023-04-06T15:51:42;11.50;;;4.93;;
71503;SDS011;59323;50.874;7.028;2023-04-06T15:54:08;11.27;;;4.77;;
71503;SDS011;59323;50.874;7.028;2023-04-06T15:56:33;9.37;;;4.60;;
71503;SDS011;59323;50.874;7.028;2023-04-06T15:59:02;11.67;;;4.70;;
71503;SDS011;59323;50.874;7.028;2023-04-06T16:01:28;14.52;;;4.65;;
71503;SDS011;59323;50.874;7.028;2023-04-06T16:03:54;12.82;;;5.03;;
71503;SDS011;59323;50.874;7.028;2023-04-06T16:06:20;12.23;;;4.53;;
71503;SDS011;59323;50.874;7.028;2023-04-06T16:08:45;10.95;;;4.50;;
71503;SDS011;59323;50.874;7.028;2023-04-06T16:11:10;11.37;;;4.73;;
71503;SDS011;59323;50.874;7.028;2023-04-06T16:13:36;16.70;;;5.80;;
71503;SDS011;59323;50.874;7.028;2023-04-06T16:16:01;11.83;;;5.70;;
71503;SDS011;59323;50.874;7.028;2023-04-06T16:18:28;13.05;;;5.50;;
71503;SDS011;59323;50.874;7.028;2023-04-06T16:20:54;11.90;;;5.20;;
71503;SDS011;59323;50.874;7.028;2023-04-06T16:23:20;12.37;;;5.50;;
71503;SDS011;59323;50.874;7.028;2023-04-06T16:25:46;11.75;;;5.28;;
71503;SDS011;59323;50.874;7.028;2023-04-06T16:28:11;10.47;;;5.33;;
71503;SDS011;59323;50.874;7.028;2023-04-06T16:30:37;12.00;;;5.50;;
71503;SDS011;59323;50.874;7.028;2023-04-06T16:33:03;11.15;;;4.95;;
71503;SDS011;59323;50.874;7.028;2023-04-06T16:35:29;13.67;;;5.50;;
71503;SDS011;59323;50.874;7.028;2023-04-06T16:37:55;10.57;;;4.97;;
71503;SDS011;59323;50.874;7.028;2023-04-06T16:40:20;10.33;;;4.77;;
71503;SDS011;59323;50.874;7.028;2023-04-06T16:42:45;9.47;;;4.80;;
71503;SDS011;59323;50.874;7.028;2023-04-06T16:45:12;11.98;;;4.78;;
71503;SDS011;59323;50.874;7.028;2023-04-06T16:47:39;11.07;;;5.00;;
71503;SDS011;59323;50.874;7.028;2023-04-06T16:50:04;10.33;;;4.10;;
71503;SDS011;59323;50.874;7.028;2023-04-06T16:52:30;9.82;;;4.28;;
71503;SDS011;59323;50.874;7.028;2023-04-06T16:54:56;13.50;;;4.87;;
71503;SDS011;59323;50.874;7.028;2023-04-06T16:57:22;10.20;;;4.30;;
71503;SDS011;59323;50.874;7.028;2023-04-06T16:59:53;10.43;;;4.63;;
71503;SDS011;59323;50.874;7.028;2023-04-06T17:02:19;10.03;;;4.40;;
71503;SDS011;59323;50.874;7.028;2023-04-06T17:04:44;12.73;;;5.43;;
71503;SDS011;59323;50.874;7.028;2023-04-06T17:07:09;13.00;;;5.30;;
71503;SDS011;59323;50.874;7.028;2023-04-06T17:09:35;10.23;;;4.47;;
71503;SDS011;59323;50.874;7.028;2023-04-06T17:12:00;14.70;;;5.90;;
71503;SDS011;59323;50.874;7.028;2023-04-06T17:14:26;13.77;;;5.80;;
71503;SDS011;59323;50.874;7.028;2023-04-06T17:16:51;10.40;;;4.80;;
71503;SDS011;59323;50.874;7.028;2023-04-06T17:19:17;12.50;;;4.90;;
71503;SDS011;59323;50.874;7.028;2023-04-06T17:21:42;10.50;;;4.70;;
71503;SDS011;59323;50.874;7.028;2023-04-06T17:24:07;10.53;;;5.30;;
71503;SDS011;59323;50.874;7.028;2023-04-06T17:26:33;11.63;;;5.17;;
71503;SDS011;59323;50.874;7.028;2023-04-06T17:28:59;11.77;;;5.17;;
71503;SDS011;59323;50.874;7.028;2023-04-06T17:31:24;13.25;;;5.80;;
71503;SDS011;59323;50.874;7.028;2023-04-06T17:33:49;13.37;;;6.00;;
71503;SDS011;59323;50.874;7.028;2023-04-06T17:36:15;13.10;;;5.50;;
71503;SDS011;59323;50.874;7.028;2023-04-06T17:38:40;13.43;;;6.05;;
71503;SDS011;59323;50.874;7.028;2023-04-06T17:41:08;12.00;;;5.87;;
71503;SDS011;59323;50.874;7.028;2023-04-06T17:43:34;13.18;;;6.13;;
71503;SDS011;59323;50.874;7.028;2023-04-06T17:46:00;13.27;;;6.40;;
71503;SDS011;59323;50.874;7.028;2023-04-06T17:48:25;15.27;;;7.50;;
71503;SDS011;59323;50.874;7.028;2023-04-06T17:50:51;13.68;;;6.40;;
71503;SDS011;59323;50.874;7.028;2023-04-06T17:53:17;13.37;;;6.37;;
71503;SDS011;59323;50.874;7.028;2023-04-06T17:55:44;13.85;;;6.47;;
71503;SDS011;59323;50.874;7.028;2023-04-06T17:58:10;13.03;;;6.60;;
71503;SDS011;59323;50.874;7.028;2023-04-06T18:00:36;14.35;;;7.43;;
71503;SDS011;59323;50.874;7.028;2023-04-06T18:03:02;17.83;;;8.10;;
71503;SDS011;59323;50.874;7.028;2023-04-06T18:05:27;14.43;;;6.23;;
71503;SDS011;59323;50.874;7.028;2023-04-06T18:07:52;16.30;;;7.60;;
71503;SDS011;59323;50.874;7.028;2023-04-06T18:10:19;16.17;;;7.45;;
71503;SDS011;59323;50.874;7.028;2023-04-06T18:12:48;15.93;;;7.50;;
71503;SDS011;59323;50.874;7.028;2023-04-06T18:15:14;14.32;;;7.47;;
71503;SDS011;59323;50.874;7.028;2023-04-06T18:17:41;13.50;;;7.17;;
71503;SDS011;59323;50.874;7.028;2023-04-06T18:20:10;15.10;;;7.45;;
71503;SDS011;59323;50.874;7.028;2023-04-06T18:22:35;14.50;;;7.23;;
71503;SDS011;59323;50.874;7.028;2023-04-06T18:25:01;16.00;;;8.95;;
71503;SDS011;59323;50.874;7.028;2023-04-06T18:27:28;16.27;;;10.40;;
71503;SDS011;59323;50.874;7.028;2023-04-06T18:29:53;16.03;;;8.67;;
71503;SDS011;59323;50.874;7.028;2023-04-06T18:32:18;17.57;;;7.97;;
71503;SDS011;59323;50.874;7.028;2023-04-06T18:34:44;17.10;;;9.23;;
71503;SDS011;59323;50.874;7.028;2023-04-06T18:37:10;15.13;;;8.50;;
71503;SDS011;59323;50.874;7.028;2023-04-06T18:39:36;19.98;;;9.68;;
71503;SDS011;59323;50.874;7.028;2023-04-06T18:42:01;17.90;;;8.77;;
71503;SDS011;59323;50.874;7.028;2023-04-06T18:44:27;19.42;;;9.07;;
71503;SDS011;59323;50.874;7.028;2023-04-06T18:46:53;15.63;;;7.43;;
71503;SDS011;59323;50.874;7.028;2023-04-06T18:49:18;19.02;;;8.98;;
71503;SDS011;59323;50.874;7.028;2023-04-06T18:51:44;17.00;;;8.90;;
71503;SDS011;59323;50.874;7.028;2023-04-06T18:54:09;15.77;;;8.43;;
71503;SDS011;59323;50.874;7.028;2023-04-06T18:56:35;17.97;;;8.77;;
71503;SDS011;59323;50.874;7.028;2023-04-06T18:59:02;18.45;;;7.47;;
71503;SDS011;59323;50.874;7.028;2023-04-06T19:01:28;19.05;;;8.52;;
71503;SDS011;59323;50.874;7.028;2023-04-06T19:03:55;17.77;;;8.33;;
71503;SDS011;59323;50.874;7.028;2023-04-06T19:06:21;17.85;;;8.55;;
71503;SDS011;59323;50.874;7.028;2023-04-06T19:08:48;17.65;;;9.18;;
71503;SDS011;59323;50.874;7.028;2023-04-06T19:11:14;15.20;;;7.43;;
71503;SDS011;59323;50.874;7.028;2023-04-06T19:13:39;16.27;;;8.00;;
71503;SDS011;59323;50.874;7.028;2023-04-06T19:16:10;16.15;;;7.70;;
71503;SDS011;59323;50.874;7.028;2023-04-06T19:18:36;16.70;;;7.85;;
71503;SDS011;59323;50.874;7.028;2023-04-06T19:21:12;17.45;;;7.85;;
71503;SDS011;59323;50.874;7.028;2023-04-06T19:23:39;17.40;;;8.50;;
71503;SDS011;59323;50.874;7.028;2023-04-06T19:26:07;17.67;;;7.93;;
71503;SDS011;59323;50.874;7.028;2023-04-06T19:28:34;15.87;;;8.23;;
71503;SDS011;59323;50.874;7.028;2023-04-06T19:30:59;15.90;;;8.00;;
71503;SDS011;59323;50.874;7.028;2023-04-06T19:33:25;19.03;;;8.33;;
71503;SDS011;59323;50.874;7.028;2023-04-06T19:35:50;16.25;;;8.27;;
71503;SDS011;59323;50.874;7.028;2023-04-06T19:38:16;18.30;;;8.47;;
71503;SDS011;59323;50.874;7.028;2023-04-06T19:40:41;17.00;;;8.47;;
71503;SDS011;59323;50.874;7.028;2023-04-06T19:43:07;14.83;;;7.57;;
71503;SDS011;59323;50.874;7.028;2023-04-06T19:45:32;18.27;;;7.97;;
71503;SDS011;59323;50.874;7.028;2023-04-06T19:47:57;15.63;;;7.90;;
71503;SDS011;59323;50.874;7.028;2023-04-06T19:50:23;15.40;;;7.37;;
71503;SDS011;59323;50.874;7.028;2023-04-06T19:52:48;16.83;;;7.87;;
71503;SDS011;59323;50.874;7.028;2023-04-06T19:55:14;17.83;;;8.47;;
71503;SDS011;59323;50.874;7.028;2023-04-06T19:57:39;16.13;;;8.55;;
71503;SDS011;59323;50.874;7.028;2023-04-06T20:00:05;15.30;;;7.43;;
71503;SDS011;59323;50.874;7.028;2023-04-06T20:02:32;15.85;;;7.55;;
71503;SDS011;59323;50.874;7.028;2023-04-06T20:04:57;16.00;;;7.20;;
71503;SDS011;59323;50.874;7.028;2023-04-06T20:07:22;17.07;;;7.83;;
71503;SDS011;59323;50.874;7.028;2023-04-06T20:09:48;16.17;;;7.70;;
71503;SDS011;59323;50.874;7.028;2023-04-06T20:12:13;17.03;;;7.53;;
71503;SDS011;59323;50.874;7.028;2023-04-06T20:14:39;17.25;;;7.57;;
71503;SDS011;59323;50.874;7.028;2023-04-06T20:17:04;15.07;;;7.30;;
71503;SDS011;59323;50.874;7.028;2023-04-06T20:19:30;15.17;;;7.13;;
71503;SDS011;59323;50.874;7.028;2023-04-06T20:21:55;12.73;;;6.43;;
71503;SDS011;59323;50.874;7.028;2023-04-06T20:24:21;14.20;;;6.67;;
71503;SDS011;59323;50.874;7.028;2023-04-06T20:26:47;14.80;;;7.20;;
71503;SDS011;59323;50.874;7.028;2023-04-06T20:29:12;16.83;;;7.00;;
71503;SDS011;59323;50.874;7.028;2023-04-06T20:31:38;14.83;;;6.73;;
71503;SDS011;59323;50.874;7.028;2023-04-06T20:34:03;14.18;;;6.72;;
71503;SDS011;59323;50.874;7.028;2023-04-06T20:36:29;17.67;;;7.07;;
71503;SDS011;59323;50.874;7.028;2023-04-06T20:38:56;13.80;;;6.60;;
71503;SDS011;59323;50.874;7.028;2023-04-06T20:41:21;13.87;;;6.73;;
71503;SDS011;59323;50.874;7.028;2023-04-06T20:43:47;17.47;;;6.93;;
71503;SDS011;59323;50.874;7.028;2023-04-06T20:46:13;18.23;;;8.17;;
71503;SDS011;59323;50.874;7.028;2023-04-06T20:48:40;14.23;;;6.77;;
71503;SDS011;59323;50.874;7.028;2023-04-06T20:51:05;15.55;;;6.80;;
71503;SDS011;59323;50.874;7.028;2023-04-06T20:53:31;13.93;;;6.70;;
71503;SDS011;59323;50.874;7.028;2023-04-06T20:55:56;14.57;;;6.33;;
71503;SDS011;59323;50.874;7.028;2023-04-06T20:58:22;17.33;;;7.72;;
71503;SDS011;59323;50.874;7.028;2023-04-06T21:00:48;15.18;;;6.72;;
71503;SDS011;59323;50.874;7.028;2023-04-06T21:03:15;14.67;;;6.60;;
71503;SDS011;59323;50.874;7.028;2023-04-06T21:05:48;12.93;;;6.28;;
71503;SDS011;59323;50.874;7.028;2023-04-06T21:08:17;15.63;;;6.50;;
71503;SDS011;59323;50.874;7.028;2023-04-06T21:10:42;14.33;;;6.67;;
71503;SDS011;59323;50.874;7.028;2023-04-06T21:13:08;14.38;;;6.90;;
71503;SDS011;59323;50.874;7.028;2023-04-06T21:15:33;15.23;;;7.00;;
71503;SDS011;59323;50.874;7.028;2023-04-06T21:17:59;13.37;;;6.40;;
71503;SDS011;59323;50.874;7.028;2023-04-06T21:20:24;13.10;;;6.83;;
71503;SDS011;59323;50.874;7.028;2023-04-06T21:22:50;13.82;;;6.22;;
71503;SDS011;59323;50.874;7.028;2023-04-06T21:25:15;14.53;;;6.70;;
71503;SDS011;59323;50.874;7.028;2023-04-06T21:27:40;14.93;;;6.40;;
71503;SDS011;59323;50.874;7.028;2023-04-06T21:30:06;16.00;;;6.47;;
71503;SDS011;59323;50.874;7.028;2023-04-06T21:32:33;15.32;;;7.57;;
71503;SDS011;59323;50.874;7.028;2023-04-06T21:34:58;14.18;;;6.50;;
71503;SDS011;59323;50.874;7.028;2023-04-06T21:37:24;12.33;;;6.33;;
71503;SDS011;59323;50.874;7.028;2023-04-06T21:39:49;14.23;;;6.50;;
71503;SDS011;59323;50.874;7.028;2023-04-06T21:42:14;13.00;;;6.33;;
71503;SDS011;59323;50.874;7.028;2023-04-06T21:44:40;13.70;;;6.47;;
71503;SDS011;59323;50.874;7.028;2023-04-06T21:47:05;12.60;;;6.17;;
71503;SDS011;59323;50.874;7.028;2023-04-06T21:49:31;13.50;;;6.70;;
71503;SDS011;59323;50.874;7.028;2023-04-06T21:51:56;15.27;;;6.93;;
71503;SDS011;59323;50.874;7.028;2023-04-06T21:54:22;15.15;;;7.15;;
71503;SDS011;59323;50.874;7.028;2023-04-06T21:56:48;13.10;;;7.23;;
71503;SDS011;59323;50.874;7.028;2023-04-06T21:59:13;14.17;;;6.63;;
71503;SDS011;59323;50.874;7.028;2023-04-06T22:01:39;14.27;;;6.97;;
71503;SDS011;59323;50.874;7.028;2023-04-06T22:04:05;15.77;;;7.87;;
71503;SDS011;59323;50.874;7.028;2023-04-06T22:06:30;15.18;;;7.55;;
71503;SDS011;59323;50.874;7.028;2023-04-06T22:08:56;17.30;;;8.10;;
71503;SDS011;59323;50.874;7.028;2023-04-06T22:11:22;18.20;;;8.48;;
71503;SDS011;59323;50.874;7.028;2023-04-06T22:13:47;17.63;;;8.43;;
71503;SDS011;59323;50.874;7.028;2023-04-06T22:16:13;17.77;;;8.77;;
71503;SDS011;59323;50.874;7.028;2023-04-06T22:18:39;20.23;;;9.90;;
71503;SDS011;59323;50.874;7.028;2023-04-06T22:21:04;19.73;;;9.67;;
71503;SDS011;59323;50.874;7.028;2023-04-06T22:23:30;19.02;;;9.40;;
71503;SDS011;59323;50.874;7.028;2023-04-06T22:25:56;18.07;;;9.20;;
71503;SDS011;59323;50.874;7.028;2023-04-06T22:28:22;22.52;;;9.82;;
71503;SDS011;59323;50.874;7.028;2023-04-06T22:30:48;18.00;;;9.23;;
71503;SDS011;59323;50.874;7.028;2023-04-06T22:33:13;16.70;;;9.20;;
71503;SDS011;59323;50.874;7.028;2023-04-06T22:35:38;19.63;;;10.23;;
71503;SDS011;59323;50.874;7.028;2023-04-06T22:38:04;22.47;;;9.87;;
71503;SDS011;59323;50.874;7.028;2023-04-06T22:40:29;17.40;;;9.13;;
71503;SDS011;59323;50.874;7.028;2023-04-06T22:42:54;19.70;;;9.07;;
71503;SDS011;59323;50.874;7.028;2023-04-06T22:45:20;18.60;;;9.90;;
71503;SDS011;59323;50.874;7.028;2023-04-06T22:47:45;19.83;;;9.37;;
71503;SDS011;59323;50.874;7.028;2023-04-06T22:50:11;18.63;;;9.17;;
71503;SDS011;59323;50.874;7.028;2023-04-06T22:52:36;21.40;;;9.07;;
71503;SDS011;59323;50.874;7.028;2023-04-06T22:55:04;18.57;;;9.00;;
71503;SDS011;59323;50.874;7.028;2023-04-06T22:57:30;18.38;;;9.02;;
71503;SDS011;59323;50.874;7.028;2023-04-06T22:59:55;18.70;;;9.77;;
71503;SDS011;59323;50.874;7.028;2023-04-06T23:02:21;18.98;;;9.02;;
71503;SDS011;59323;50.874;7.028;2023-04-06T23:04:46;19.77;;;8.97;;
71503;SDS011;59323;50.874;7.028;2023-04-06T23:07:12;17.33;;;9.03;;
71503;SDS011;59323;50.874;7.028;2023-04-06T23:09:42;19.23;;;9.25;;
71503;SDS011;59323;50.874;7.028;2023-04-06T23:12:08;19.07;;;9.17;;
71503;SDS011;59323;50.874;7.028;2023-04-06T23:14:35;20.48;;;8.50;;
71503;SDS011;59323;50.874;7.028;2023-04-06T23:17:00;18.90;;;9.47;;
71503;SDS011;59323;50.874;7.028;2023-04-06T23:19:26;18.67;;;9.60;;
71503;SDS011;59323;50.874;7.028;2023-04-06T23:21:51;18.13;;;8.53;;
71503;SDS011;59323;50.874;7.028;2023-04-06T23:24:16;18.10;;;9.40;;
71503;SDS011;59323;50.874;7.028;2023-04-06T23:26:42;17.90;;;9.40;;
71503;SDS011;59323;50.874;7.028;2023-04-06T23:29:07;19.13;;;8.90;;
71503;SDS011;59323;50.874;7.028;2023-04-06T23:31:32;20.07;;;10.10;;
71503;SDS011;59323;50.874;7.028;2023-04-06T23:33:58;19.17;;;9.60;;
71503;SDS011;59323;50.874;7.028;2023-04-06T23:36:23;18.57;;;9.03;;
71503;SDS011;59323;50.874;7.028;2023-04-06T23:38:48;19.00;;;9.33;;
71503;SDS011;59323;50.874;7.028;2023-04-06T23:41:14;20.00;;;9.33;;
71503;SDS011;59323;50.874;7.028;2023-04-06T23:43:42;22.05;;;9.65;;
71503;SDS011;59323;50.874;7.028;2023-04-06T23:46:08;17.13;;;8.82;;
71503;SDS011;59323;50.874;7.028;2023-04-06T23:48:33;19.13;;;9.13;;
71503;SDS011;59323;50.874;7.028;2023-04-06T23:50:59;17.53;;;8.83;;
71503;SDS011;59323;50.874;7.028;2023-04-06T23:53:24;19.92;;;8.45;;
71503;SDS011;59323;50.874;7.028;2023-04-06T23:55:49;19.23;;;9.47;;
71503;SDS011;59323;50.874;7.028;2023-04-06T23:58:15;20.07;;;9.10;;
